KPSP/PSP METAR and TAF weather

Enter ICAO airport designator
Station Type Date Time Source
KPSP METAR 2019/05/20 10:53 UTC NOAA

KPSP 201053Z AUTO 35010KT 10SM CLR 15/06 A2974 RMK AO2 SLP069 T01500056


Station Type Date Time Source
KPSP Decoded METAR 2019/05/20 10:53 UTC NOAA

PALM SPRINGS REGIONAL AIRPORT , CA, United States (KPSP) 33-50N 116-30W 135M
May 20, 2019 - 06:53 AM EDT / 2019.05.20 1053 UTC
Wind: from the N (350 degrees) at 12 MPH (10 KT):0
Visibility: 10 mile(s):0
Sky conditions: clear
Temperature: 59.0 F (15.0 C)
Dew Point: 42.1 F (5.6 C)
Relative Humidity: 53%
Pressure (altimeter): 29.74 in. Hg (1007 hPa)
ob: KPSP 201053Z AUTO 35010KT 10SM CLR 15/06 A2974 RMK AO2 SLP069 T01500056
cycle: 11

Station Type Date Time Source
KPSP TAF 2019/05/20 11:51 UTC NOAA

TAF
AMD KPSP 201049Z 2011/2106 10008KT P6SM SCT250
FM201600 34018G28KT P6SM SKC

Example: see airport list